Time;durP1;ratioP1;P1;durP2;ratioP2;P2;SDS_P1;SDS_P2;PMS_P1;PMS_P2;Temp;Humidity;BMP_temperature;BMP_pressure;BME280_temperature;BME280_humidity;BME280_pressure;Samples;Min_cycle;Max_cycle;Signal;HPM_P1;HPM_P2
2022/04/02 00:00:19;;;;;;;4.57;1.73;;;;;;;;;;5004308;28;20513;-35
2022/04/02 00:02:45;;;;;;;7.50;1.60;;;;;;;;;;5007807;28;20199;-35
2022/04/02 00:05:11;;;;;;;5.80;2.07;;;;;;;;;;5005105;28;20203;-35
2022/04/02 00:07:38;;;;;;;5.77;1.83;;;;;;;;;;5002840;28;20172;-35
2022/04/02 00:10:05;;;;;;;9.23;2.43;;;;;;;;;;5009913;28;20215;-35
2022/04/02 00:12:31;;;;;;;7.17;1.83;;;;;;;;;;5005988;28;20670;-35
2022/04/02 00:14:58;;;;;;;4.07;1.40;;;;;;;;;;5003835;28;20291;-35
2022/04/02 00:17:24;;;;;;;6.47;1.87;;;;;;;;;;5007179;28;20525;-36
2022/04/02 00:19:50;;;;;;;9.97;1.87;;;;;;;;;;5007855;28;20294;-35
2022/04/02 00:22:16;;;;;;;6.43;1.90;;;;;;;;;;5006598;28;20904;-35
2022/04/02 00:24:43;;;;;;;7.37;1.53;;;;;;;;;;5006290;28;20176;-35
2022/04/02 00:27:09;;;;;;;8.63;1.87;;;;;;;;;;5009166;28;20449;-35
2022/04/02 00:29:38;;;;;;;3.77;1.37;;;;;;;;;;5006329;28;20406;-35
2022/04/02 00:32:04;;;;;;;4.17;1.47;;;;;;;;;;5004049;28;20415;-35
2022/04/02 00:34:31;;;;;;;5.03;1.40;;;;;;;;;;5006639;28;20446;-35
2022/04/02 00:36:57;;;;;;;2.60;1.40;;;;;;;;;;5006272;28;20683;-35
2022/04/02 00:39:23;;;;;;;5.90;1.50;;;;;;;;;;5007208;28;20972;-35
2022/04/02 00:41:49;;;;;;;7.60;1.83;;;;;;;;;;5007614;28;20417;-35
2022/04/02 00:44:21;;;;;;;5.43;1.50;;;;;;;;;;5009179;28;21024;-35
2022/04/02 00:46:47;;;;;;;4.63;1.47;;;;;;;;;;5008672;28;20874;-35
2022/04/02 00:49:14;;;;;;;4.00;1.30;;;;;;;;;;5006270;28;21128;-35
2022/04/02 00:51:42;;;;;;;5.90;1.80;;;;;;;;;;5002804;28;20418;-35
2022/04/02 00:54:09;;;;;;;4.43;1.33;;;;;;;;;;5007404;28;21076;-35
2022/04/02 00:56:37;;;;;;;6.53;1.60;;;;;;;;;;5007103;28;20419;-35
2022/04/02 00:59:03;;;;;;;3.30;1.13;;;;;;;;;;5007191;28;20533;-35
2022/04/02 01:01:31;;;;;;;5.07;1.70;;;;;;;;;;5006379;28;21280;-35
2022/04/02 01:03:58;;;;;;;2.53;1.30;;;;;;;;;;5007668;28;20407;-35
2022/04/02 01:06:25;;;;;;;5.93;1.60;;;;;;;;;;5003530;28;21367;-35
2022/04/02 01:08:51;;;;;;;5.80;1.70;;;;;;;;;;5005109;28;21181;-35
2022/04/02 01:11:17;;;;;;;5.10;1.80;;;;;;;;;;5008342;28;20429;-35
2022/04/02 01:13:43;;;;;;;2.90;1.30;;;;;;;;;;4988105;28;20485;-35
2022/04/02 01:16:09;;;;;;;4.40;1.47;;;;;;;;;;5002938;28;20732;-35
2022/04/02 01:18:36;;;;;;;4.10;1.33;;;;;;;;;;5006992;28;20402;-35
2022/04/02 01:21:02;;;;;;;6.67;1.73;;;;;;;;;;5008689;28;20870;-36
2022/04/02 01:23:29;;;;;;;3.27;1.33;;;;;;;;;;5004944;28;20422;-35
2022/04/02 01:26:02;;;;;;;6.63;1.57;;;;;;;;;;5004749;28;21170;-35
2022/04/02 01:28:33;;;;;;;8.97;1.87;;;;;;;;;;5007391;28;20407;-35
2022/04/02 01:31:00;;;;;;;6.33;1.63;;;;;;;;;;5005991;28;20533;-35
2022/04/02 01:33:27;;;;;;;5.33;1.70;;;;;;;;;;5002650;28;20462;-35
2022/04/02 01:35:58;;;;;;;5.97;1.57;;;;;;;;;;5005096;28;20422;-35
2022/04/02 01:38:24;;;;;;;4.90;1.60;;;;;;;;;;5006609;28;20912;-35
2022/04/02 01:40:50;;;;;;;3.07;1.30;;;;;;;;;;5007681;28;20414;-35
2022/04/02 01:43:16;;;;;;;7.80;1.73;;;;;;;;;;5003271;28;21308;-35
2022/04/02 01:45:42;;;;;;;4.53;1.50;;;;;;;;;;5003571;28;20484;-35
2022/04/02 01:48:08;;;;;;;3.50;1.70;;;;;;;;;;5002778;28;20426;-35
2022/04/02 01:50:34;;;;;;;3.90;1.27;;;;;;;;;;5009034;28;20715;-35
2022/04/02 01:53:00;;;;;;;4.60;1.63;;;;;;;;;;5003377;28;21063;-35
2022/04/02 01:55:26;;;;;;;6.57;1.73;;;;;;;;;;5003173;28;20418;-35
2022/04/02 01:57:52;;;;;;;3.67;1.57;;;;;;;;;;5003479;28;20588;-35
2022/04/02 02:00:21;;;;;;;4.57;1.60;;;;;;;;;;5007801;28;20726;-35
2022/04/02 02:02:47;;;;;;;5.17;1.70;;;;;;;;;;5008216;28;20624;-35
2022/04/02 02:05:13;;;;;;;4.27;1.87;;;;;;;;;;5004557;28;21145;-35
2022/04/02 02:07:39;;;;;;;8.07;1.80;;;;;;;;;;5000557;28;20613;-34
2022/04/02 02:10:06;;;;;;;7.13;1.60;;;;;;;;;;5006933;28;20513;-35
2022/04/02 02:12:33;;;;;;;3.00;1.40;;;;;;;;;;5002605;28;20505;-35
2022/04/02 02:14:59;;;;;;;4.93;1.90;;;;;;;;;;4999643;28;20569;-35
2022/04/02 02:17:25;;;;;;;3.40;1.50;;;;;;;;;;4998392;28;20614;-35
2022/04/02 02:19:51;;;;;;;11.53;2.07;;;;;;;;;;5003439;28;21482;-35
2022/04/02 02:22:17;;;;;;;8.73;2.00;;;;;;;;;;5004094;28;20785;-35
2022/04/02 02:24:43;;;;;;;6.20;1.77;;;;;;;;;;5001584;28;20437;-35
2022/04/02 02:27:09;;;;;;;5.73;1.70;;;;;;;;;;5001766;28;20839;-35
2022/04/02 02:29:35;;;;;;;3.43;1.60;;;;;;;;;;5006612;28;20430;-35
2022/04/02 02:32:01;;;;;;;4.20;1.47;;;;;;;;;;5006176;28;20843;-35
2022/04/02 02:37:12;;;;;;;4.83;1.60;;;;;;;;;;5005450;28;20457;-35
2022/04/02 02:39:38;;;;;;;5.93;1.90;;;;;;;;;;5005395;28;20435;-35
2022/04/02 02:42:05;;;;;;;4.30;1.50;;;;;;;;;;5005050;28;20415;-35
2022/04/02 02:44:31;;;;;;;5.57;1.43;;;;;;;;;;5004933;28;20703;-37
2022/04/02 02:46:57;;;;;;;3.20;1.37;;;;;;;;;;5005374;28;20430;-35
2022/04/02 02:49:23;;;;;;;5.80;1.80;;;;;;;;;;5002369;28;20766;-35
2022/04/02 02:51:49;;;;;;;4.73;1.50;;;;;;;;;;5001391;28;20864;-35
2022/04/02 02:54:15;;;;;;;3.53;1.37;;;;;;;;;;5003885;28;21041;-35
2022/04/02 02:56:41;;;;;;;3.07;1.60;;;;;;;;;;5005448;28;20426;-35
2022/04/02 02:59:07;;;;;;;3.87;1.30;;;;;;;;;;5004925;28;20638;-35
2022/04/02 03:01:33;;;;;;;3.77;1.37;;;;;;;;;;5005349;28;20719;-35
2022/04/02 03:03:59;;;;;;;2.83;1.40;;;;;;;;;;5002784;28;20446;-35
2022/04/02 03:06:25;;;;;;;2.13;1.63;;;;;;;;;;5004530;28;20908;-35
2022/04/02 03:08:51;;;;;;;2.87;1.20;;;;;;;;;;5005925;28;20875;-35
2022/04/02 03:11:18;;;;;;;2.63;1.10;;;;;;;;;;5003951;28;20426;-35
2022/04/02 03:13:44;;;;;;;2.60;1.07;;;;;;;;;;5001848;28;20451;-35
2022/04/02 03:16:10;;;;;;;3.60;1.20;;;;;;;;;;5007031;28;20425;-35
2022/04/02 03:18:36;;;;;;;3.10;1.40;;;;;;;;;;5005418;28;21069;-35
2022/04/02 03:21:02;;;;;;;3.80;1.47;;;;;;;;;;5007077;28;20418;-35
2022/04/02 03:23:29;;;;;;;2.10;1.20;;;;;;;;;;5010036;28;20456;-35
2022/04/02 03:25:55;;;;;;;3.23;1.10;;;;;;;;;;5007499;28;20418;-35
2022/04/02 03:28:21;;;;;;;2.80;1.43;;;;;;;;;;5007167;28;20521;-35
2022/04/02 03:30:47;;;;;;;3.70;1.20;;;;;;;;;;5009808;28;20511;-35
2022/04/02 03:33:14;;;;;;;4.77;1.70;;;;;;;;;;5007585;28;20756;-35
2022/04/02 03:35:43;;;;;;;2.90;1.37;;;;;;;;;;5007354;28;20729;-35
2022/04/02 03:38:09;;;;;;;2.27;1.30;;;;;;;;;;5006474;28;20509;-35
2022/04/02 03:40:35;;;;;;;4.70;1.63;;;;;;;;;;5007750;28;20709;-35
2022/04/02 03:43:01;;;;;;;4.30;1.53;;;;;;;;;;5010434;28;20415;-35
2022/04/02 03:45:27;;;;;;;5.33;1.60;;;;;;;;;;5007348;28;21130;-35
2022/04/02 03:47:53;;;;;;;3.63;1.27;;;;;;;;;;5002659;28;21400;-35
2022/04/02 03:50:20;;;;;;;2.53;1.50;;;;;;;;;;5005583;28;20438;-35
2022/04/02 03:52:46;;;;;;;3.63;1.73;;;;;;;;;;5007830;28;20942;-36
2022/04/02 03:55:13;;;;;;;8.00;1.90;;;;;;;;;;5006595;28;20430;-35
2022/04/02 03:57:39;;;;;;;6.43;2.20;;;;;;;;;;5003790;28;20503;-35
2022/04/02 04:00:06;;;;;;;4.67;2.33;;;;;;;;;;5006495;28;20649;-35
2022/04/02 04:02:34;;;;;;;5.80;2.60;;;;;;;;;;5010614;28;20720;-35
2022/04/02 04:05:00;;;;;;;5.10;2.50;;;;;;;;;;5005485;28;20541;-35
2022/04/02 04:07:26;;;;;;;2.53;2.30;;;;;;;;;;5004031;28;20430;-35
2022/04/02 04:09:52;;;;;;;5.27;2.47;;;;;;;;;;5003076;28;20487;-35
2022/04/02 04:12:19;;;;;;;5.70;2.40;;;;;;;;;;5007272;28;20598;-35
2022/04/02 04:14:45;;;;;;;3.87;2.13;;;;;;;;;;5005057;28;20453;-35
2022/04/02 04:17:11;;;;;;;3.97;2.10;;;;;;;;;;5003261;28;20500;-35
2022/04/02 04:19:37;;;;;;;4.47;1.53;;;;;;;;;;5007509;28;20838;-35
2022/04/02 04:22:06;;;;;;;3.47;1.57;;;;;;;;;;5005070;28;21143;-35
2022/04/02 04:24:32;;;;;;;4.27;1.80;;;;;;;;;;5002951;28;20459;-35
2022/04/02 04:26:58;;;;;;;3.07;1.60;;;;;;;;;;5005196;28;21103;-35
2022/04/02 04:29:24;;;;;;;2.30;1.50;;;;;;;;;;5004575;28;20414;-35
2022/04/02 04:31:50;;;;;;;3.27;1.50;;;;;;;;;;5003881;28;20902;-35
2022/04/02 04:34:17;;;;;;;2.73;1.53;;;;;;;;;;5008994;28;21378;-35
2022/04/02 04:36:43;;;;;;;1.70;1.30;;;;;;;;;;5004447;28;20495;-35
2022/04/02 04:39:09;;;;;;;3.60;1.70;;;;;;;;;;5004129;28;20425;-36
2022/04/02 04:41:38;;;;;;;1.87;1.57;;;;;;;;;;5005371;28;20798;-36
2022/04/02 04:44:05;;;;;;;4.47;1.50;;;;;;;;;;5009130;28;20529;-35
2022/04/02 04:46:31;;;;;;;4.23;2.00;;;;;;;;;;5002247;28;20504;-35
2022/04/02 04:48:57;;;;;;;3.27;1.80;;;;;;;;;;5007210;28;20799;-35
2022/04/02 04:51:23;;;;;;;2.90;1.70;;;;;;;;;;5009224;28;21181;-35
2022/04/02 04:53:50;;;;;;;2.57;1.80;;;;;;;;;;5004679;28;21014;-36
2022/04/02 04:56:16;;;;;;;2.87;1.60;;;;;;;;;;5002744;28;20521;-35
2022/04/02 04:58:42;;;;;;;2.87;1.40;;;;;;;;;;5000850;28;20827;-35
2022/04/02 05:01:12;;;;;;;1.80;1.37;;;;;;;;;;4984474;28;20862;-35
2022/04/02 05:03:40;;;;;;;2.97;1.43;;;;;;;;;;5004539;28;21156;-35
2022/04/02 05:06:08;;;;;;;2.37;1.40;;;;;;;;;;5004639;28;20418;-35
2022/04/02 05:08:34;;;;;;;3.57;1.20;;;;;;;;;;5007763;28;20437;-35
2022/04/02 05:11:01;;;;;;;2.80;1.30;;;;;;;;;;5004008;28;20505;-35
2022/04/02 05:13:28;;;;;;;1.50;1.20;;;;;;;;;;5006985;28;20443;-35
2022/04/02 05:15:54;;;;;;;4.67;1.60;;;;;;;;;;5003439;28;20427;-35
2022/04/02 05:18:20;;;;;;;2.50;1.20;;;;;;;;;;5005622;28;21294;-35
2022/04/02 05:20:46;;;;;;;5.10;1.67;;;;;;;;;;5003045;28;20451;-36
2022/04/02 05:23:12;;;;;;;2.60;1.50;;;;;;;;;;5004709;28;20641;-35
2022/04/02 05:25:38;;;;;;;4.87;1.80;;;;;;;;;;5006830;28;20842;-35
2022/04/02 05:28:05;;;;;;;1.87;1.30;;;;;;;;;;5006106;28;20533;-35
2022/04/02 05:30:35;;;;;;;5.07;1.60;;;;;;;;;;5003578;28;20521;-35
2022/04/02 05:33:01;;;;;;;2.57;1.33;;;;;;;;;;5004058;28;20439;-35
2022/04/02 05:35:27;;;;;;;3.57;1.47;;;;;;;;;;5005250;28;20500;-36
2022/04/02 05:37:54;;;;;;;4.23;1.40;;;;;;;;;;5016308;28;20411;-36
2022/04/02 05:40:20;;;;;;;3.50;1.63;;;;;;;;;;5006288;28;20772;-36
2022/04/02 05:42:46;;;;;;;3.70;1.50;;;;;;;;;;5005352;28;20487;-35
2022/04/02 05:45:13;;;;;;;2.30;1.40;;;;;;;;;;5001899;28;21142;-35
2022/04/02 05:47:46;;;;;;;2.90;1.33;;;;;;;;;;5003512;28;20503;-35
2022/04/02 05:50:13;;;;;;;3.13;1.37;;;;;;;;;;5007495;28;20616;-36
2022/04/02 05:52:40;;;;;;;4.70;1.27;;;;;;;;;;5010051;28;20532;-35
2022/04/02 05:55:07;;;;;;;2.10;1.33;;;;;;;;;;5006846;28;20577;-35
2022/04/02 05:57:33;;;;;;;5.73;1.50;;;;;;;;;;5004704;28;20415;-36
2022/04/02 06:00:00;;;;;;;2.93;1.23;;;;;;;;;;5003405;28;20411;-35
2022/04/02 06:02:27;;;;;;;3.70;1.33;;;;;;;;;;5001037;28;20599;-36
2022/04/02 06:04:53;;;;;;;1.87;1.33;;;;;;;;;;5007834;28;20769;-35
2022/04/02 06:07:19;;;;;;;6.97;1.40;;;;;;;;;;5002296;28;20425;-36
2022/04/02 06:09:45;;;;;;;1.90;1.10;;;;;;;;;;5004877;28;20422;-35
2022/04/02 06:12:11;;;;;;;5.23;1.20;;;;;;;;;;5002600;28;21090;-36
2022/04/02 06:14:37;;;;;;;3.03;1.30;;;;;;;;;;5007421;28;21269;-36
2022/04/02 06:17:03;;;;;;;2.43;1.27;;;;;;;;;;5005879;28;21431;-36
2022/04/02 06:19:30;;;;;;;3.27;1.20;;;;;;;;;;5003580;28;20429;-36
2022/04/02 06:21:56;;;;;;;5.13;1.37;;;;;;;;;;5003760;28;21022;-36
2022/04/02 06:24:22;;;;;;;3.57;1.33;;;;;;;;;;5006215;28;20565;-36
2022/04/02 06:26:48;;;;;;;5.47;1.57;;;;;;;;;;4997869;28;20430;-35
2022/04/02 06:29:14;;;;;;;3.87;1.57;;;;;;;;;;5000673;28;20438;-36
2022/04/02 06:31:40;;;;;;;3.67;1.40;;;;;;;;;;5005641;28;20442;-36
2022/04/02 06:34:06;;;;;;;2.60;1.20;;;;;;;;;;5003942;28;21286;-36
2022/04/02 06:36:32;;;;;;;3.47;1.30;;;;;;;;;;4998325;28;20422;-36
2022/04/02 06:38:58;;;;;;;2.53;1.30;;;;;;;;;;5003203;28;20418;-36
2022/04/02 06:41:24;;;;;;;3.23;1.30;;;;;;;;;;5006506;28;20973;-35
2022/04/02 06:43:50;;;;;;;3.30;1.40;;;;;;;;;;5002924;28;20423;-36
2022/04/02 06:46:17;;;;;;;3.83;1.50;;;;;;;;;;4999500;28;20877;-35
2022/04/02 06:48:43;;;;;;;4.00;1.50;;;;;;;;;;5002974;28;21427;-36
2022/04/02 06:51:09;;;;;;;4.40;1.50;;;;;;;;;;5006070;28;20432;-35
2022/04/02 06:53:35;;;;;;;4.13;1.43;;;;;;;;;;5007132;28;20458;-35
2022/04/02 06:56:02;;;;;;;3.47;1.30;;;;;;;;;;5002963;28;20434;-35
2022/04/02 06:58:29;;;;;;;3.07;1.30;;;;;;;;;;5011711;28;20422;-36
2022/04/02 07:00:55;;;;;;;5.33;1.53;;;;;;;;;;5002284;28;20426;-36
2022/04/02 07:03:22;;;;;;;3.77;1.37;;;;;;;;;;5003129;28;20672;-35
2022/04/02 07:05:48;;;;;;;3.97;1.43;;;;;;;;;;5010478;28;20430;-35
2022/04/02 07:08:14;;;;;;;6.60;1.60;;;;;;;;;;5005182;28;20441;-36
2022/04/02 07:10:40;;;;;;;5.63;1.40;;;;;;;;;;5002026;28;20423;-35
2022/04/02 07:13:07;;;;;;;4.10;1.63;;;;;;;;;;5005492;28;20508;-35
2022/04/02 07:15:33;;;;;;;2.63;1.20;;;;;;;;;;5007526;28;21085;-36
2022/04/02 07:18:05;;;;;;;3.57;1.50;;;;;;;;;;5001112;28;20803;-36
2022/04/02 07:20:34;;;;;;;4.27;1.47;;;;;;;;;;5006331;28;21087;-36
2022/04/02 07:23:00;;;;;;;6.10;1.97;;;;;;;;;;5007029;28;20449;-36
2022/04/02 07:25:27;;;;;;;4.17;1.90;;;;;;;;;;5008904;28;20425;-36
2022/04/02 07:27:54;;;;;;;4.87;1.57;;;;;;;;;;4999417;28;20429;-35
2022/04/02 07:30:20;;;;;;;4.83;1.80;;;;;;;;;;5000949;28;20515;-35
2022/04/02 07:32:46;;;;;;;6.07;1.87;;;;;;;;;;5009464;28;20438;-36
2022/04/02 07:35:12;;;;;;;4.43;1.53;;;;;;;;;;5005033;28;20535;-36
2022/04/02 07:37:46;;;;;;;5.53;1.67;;;;;;;;;;5007529;28;20410;-35
2022/04/02 07:40:12;;;;;;;3.37;1.47;;;;;;;;;;5005134;28;21005;-36
2022/04/02 07:42:51;;;;;;;3.13;1.23;;;;;;;;;;5007640;28;21327;-35
2022/04/02 07:45:20;;;;;;;6.40;1.67;;;;;;;;;;5002841;28;20851;-36
2022/04/02 07:47:49;;;;;;;5.40;1.60;;;;;;;;;;5001391;28;20879;-35
2022/04/02 07:50:16;;;;;;;4.30;1.60;;;;;;;;;;5008322;28;20708;-36
2022/04/02 07:52:46;;;;;;;2.97;1.30;;;;;;;;;;5006910;28;20437;-35
2022/04/02 07:55:13;;;;;;;5.43;1.80;;;;;;;;;;5006734;28;20192;-36
2022/04/02 07:57:40;;;;;;;5.47;1.73;;;;;;;;;;5006042;28;20815;-35
2022/04/02 08:00:10;;;;;;;6.87;1.60;;;;;;;;;;5005961;28;21370;-36
2022/04/02 08:02:37;;;;;;;4.83;1.70;;;;;;;;;;5002627;28;20513;-36
2022/04/02 08:05:03;;;;;;;5.20;1.70;;;;;;;;;;5008178;28;20438;-36
2022/04/02 08:07:30;;;;;;;5.73;1.63;;;;;;;;;;5005667;28;20422;-36
2022/04/02 08:09:57;;;;;;;4.77;1.67;;;;;;;;;;5000776;28;20957;-36
2022/04/02 08:12:24;;;;;;;7.10;1.53;;;;;;;;;;5000655;28;20189;-36
2022/04/02 08:14:51;;;;;;;3.00;1.37;;;;;;;;;;5009186;28;20184;-36
2022/04/02 08:17:17;;;;;;;4.60;1.50;;;;;;;;;;4999382;28;20426;-36
2022/04/02 08:19:44;;;;;;;2.60;1.40;;;;;;;;;;5003757;28;20409;-36
2022/04/02 08:22:10;;;;;;;5.97;1.60;;;;;;;;;;5004832;28;20241;-36
2022/04/02 08:24:36;;;;;;;5.77;1.80;;;;;;;;;;5003772;28;20330;-36
2022/04/02 08:27:04;;;;;;;2.57;1.50;;;;;;;;;;5004454;28;20168;-36
2022/04/02 08:29:49;;;;;;;6.00;1.77;;;;;;;;;;5005788;28;20514;-38
2022/04/02 08:32:26;;;;;;;3.77;1.70;;;;;;;;;;5007840;28;20640;-38
2022/04/02 08:34:55;;;;;;;3.80;1.63;;;;;;;;;;5008786;28;20208;-38
2022/04/02 08:37:21;;;;;;;5.80;1.63;;;;;;;;;;5005055;28;20713;-38
2022/04/02 08:39:54;;;;;;;3.57;1.40;;;;;;;;;;5006803;28;20273;-36
2022/04/02 08:42:20;;;;;;;4.47;1.77;;;;;;;;;;5008462;28;20168;-37
2022/04/02 08:45:05;;;;;;;4.53;1.83;;;;;;;;;;5010930;28;20176;-36
2022/04/02 08:47:49;;;;;;;3.37;1.60;;;;;;;;;;5005779;28;20172;-37
2022/04/02 08:50:16;;;;;;;4.13;1.57;;;;;;;;;;5009870;28;20182;-36
2022/04/02 08:52:51;;;;;;;3.87;1.80;;;;;;;;;;5008966;28;20467;-37
2022/04/02 08:55:18;;;;;;;3.33;1.60;;;;;;;;;;5003017;28;20739;-36
2022/04/02 08:57:47;;;;;;;4.83;1.53;;;;;;;;;;5009826;28;20176;-37
2022/04/02 09:00:14;;;;;;;4.80;1.60;;;;;;;;;;5004937;28;20177;-37
2022/04/02 09:02:46;;;;;;;3.27;1.47;;;;;;;;;;5006918;28;20213;-37
2022/04/02 09:05:18;;;;;;;5.57;1.67;;;;;;;;;;5009529;28;20585;-37
2022/04/02 09:08:04;;;;;;;6.50;1.97;;;;;;;;;;5007294;28;20286;-37
2022/04/02 09:10:49;;;;;;;2.83;1.40;;;;;;;;;;5004089;28;20179;-37
2022/04/02 09:13:47;;;;;;;4.33;1.53;;;;;;;;;;5005430;28;20180;-37
2022/04/02 09:16:26;;;;;;;2.90;1.60;;;;;;;;;;4975218;28;20294;-37
2022/04/02 09:19:04;;;;;;;2.93;1.50;;;;;;;;;;5005934;28;20435;-38
2022/04/02 09:21:31;;;;;;;7.80;1.70;;;;;;;;;;5005882;28;20274;-39
2022/04/02 09:24:12;;;;;;;4.57;1.57;;;;;;;;;;5007837;28;20261;-39
2022/04/02 09:26:59;;;;;;;3.93;1.53;;;;;;;;;;5007705;28;20177;-39
2022/04/02 09:29:37;;;;;;;6.23;1.60;;;;;;;;;;5005297;28;20483;-39
2022/04/02 09:32:06;;;;;;;3.00;1.53;;;;;;;;;;5005672;28;20611;-36
2022/04/02 09:34:47;;;;;;;4.77;1.90;;;;;;;;;;5008144;28;20746;-36
2022/04/02 09:37:23;;;;;;;4.60;1.60;;;;;;;;;;5007537;28;20176;-38
2022/04/02 09:40:02;;;;;;;6.10;1.70;;;;;;;;;;5003900;28;20274;-36
2022/04/02 09:42:28;;;;;;;2.67;1.40;;;;;;;;;;5004063;28;20590;-38
2022/04/02 09:45:12;;;;;;;3.73;1.70;;;;;;;;;;5008854;28;20253;-36
2022/04/02 09:47:47;;;;;;;6.13;1.47;;;;;;;;;;5002855;28;20883;-36
2022/04/02 09:50:13;;;;;;;2.00;1.50;;;;;;;;;;5006336;28;20180;-36
2022/04/02 09:52:45;;;;;;;3.27;1.47;;;;;;;;;;5005685;28;20548;-36
2022/04/02 09:55:12;;;;;;;4.37;1.70;;;;;;;;;;5005946;28;20196;-36
2022/04/02 09:57:38;;;;;;;3.97;1.63;;;;;;;;;;5008800;28;20168;-35
2022/04/02 10:00:08;;;;;;;2.73;1.47;;;;;;;;;;5004516;28;20172;-38
2022/04/02 10:02:44;;;;;;;3.77;1.50;;;;;;;;;;5004863;28;20168;-38
2022/04/02 10:05:14;;;;;;;3.57;1.40;;;;;;;;;;5007736;28;20182;-38
2022/04/02 10:07:46;;;;;;;5.17;1.57;;;;;;;;;;5006002;28;20487;-39
2022/04/02 10:10:12;;;;;;;4.23;1.70;;;;;;;;;;5004733;28;20177;-38
2022/04/02 10:12:42;;;;;;;4.90;1.80;;;;;;;;;;5004908;28;20184;-37
2022/04/02 10:15:09;;;;;;;2.43;1.50;;;;;;;;;;5011404;28;20946;-38
2022/04/02 10:17:39;;;;;;;4.50;1.50;;;;;;;;;;5009335;28;20612;-36
2022/04/02 10:20:07;;;;;;;4.60;1.47;;;;;;;;;;5006233;28;20164;-38
2022/04/02 10:22:39;;;;;;;1.77;1.20;;;;;;;;;;5006624;28;20692;-36
2022/04/02 10:25:07;;;;;;;3.63;1.20;;;;;;;;;;5003348;28;20221;-36
2022/04/02 10:27:33;;;;;;;2.97;1.63;;;;;;;;;;5004247;28;20339;-38
2022/04/02 10:30:02;;;;;;;2.03;1.27;;;;;;;;;;5003949;28;20183;-36
2022/04/02 10:32:38;;;;;;;3.80;1.53;;;;;;;;;;5007151;28;20946;-36
2022/04/02 10:35:04;;;;;;;4.10;1.70;;;;;;;;;;5002446;28;20230;-36
2022/04/02 10:37:49;;;;;;;3.47;1.73;;;;;;;;;;5005098;28;20179;-36
2022/04/02 10:40:18;;;;;;;4.37;1.60;;;;;;;;;;5002335;28;20180;-36
2022/04/02 10:42:57;;;;;;;3.90;1.77;;;;;;;;;;5007003;28;20168;-36
2022/04/02 10:45:25;;;;;;;2.67;1.40;;;;;;;;;;5008706;28;20172;-36
2022/04/02 10:48:10;;;;;;;3.13;1.40;;;;;;;;;;5004821;28;20470;-36
2022/04/02 10:50:41;;;;;;;5.13;1.60;;;;;;;;;;5005158;28;21008;-36
2022/04/02 10:53:10;;;;;;;3.73;1.60;;;;;;;;;;5007026;28;20184;-36
2022/04/02 10:55:41;;;;;;;3.73;1.53;;;;;;;;;;4997676;28;20192;-36
2022/04/02 10:58:11;;;;;;;3.07;1.40;;;;;;;;;;4998429;28;20181;-36
2022/04/02 11:00:37;;;;;;;2.43;1.37;;;;;;;;;;5004165;28;20675;-36
2022/04/02 11:03:04;;;;;;;2.73;1.40;;;;;;;;;;5000815;28;20179;-35
2022/04/02 11:05:37;;;;;;;3.17;1.50;;;;;;;;;;5002556;28;20172;-36
2022/04/02 11:08:10;;;;;;;4.70;1.70;;;;;;;;;;5005384;28;20963;-36
2022/04/02 11:10:36;;;;;;;2.67;1.50;;;;;;;;;;5007162;28;20185;-36
2022/04/02 11:13:04;;;;;;;3.43;1.50;;;;;;;;;;5002940;28;20307;-36
2022/04/02 11:15:33;;;;;;;3.27;1.50;;;;;;;;;;5003498;28;20414;-36
2022/04/02 11:18:01;;;;;;;3.07;1.60;;;;;;;;;;5008060;28;20267;-36
2022/04/02 11:20:31;;;;;;;3.30;1.40;;;;;;;;;;5006575;28;20286;-37
2022/04/02 11:23:26;;;;;;;2.80;1.30;;;;;;;;;;5005327;28;20352;-35
2022/04/02 11:26:01;;;;;;;5.03;1.73;;;;;;;;;;4993163;28;20187;-36
2022/04/02 11:28:36;;;;;;;2.93;1.27;;;;;;;;;;5003818;28;20607;-36
2022/04/02 11:31:03;;;;;;;2.87;1.50;;;;;;;;;;5004849;28;20187;-36
2022/04/02 11:33:32;;;;;;;4.03;1.50;;;;;;;;;;5007752;28;20176;-36
2022/04/02 11:35:58;;;;;;;2.13;1.50;;;;;;;;;;5005499;28;20204;-36
2022/04/02 11:38:47;;;;;;;2.83;1.70;;;;;;;;;;5007817;28;20256;-36
2022/04/02 11:41:14;;;;;;;3.33;1.70;;;;;;;;;;5000920;28;20195;-38
2022/04/02 11:43:44;;;;;;;2.17;1.20;;;;;;;;;;5005416;28;20947;-36
2022/04/02 11:46:11;;;;;;;3.67;1.50;;;;;;;;;;5004497;28;20393;-36
2022/04/02 11:48:49;;;;;;;2.90;1.60;;;;;;;;;;5003687;28;20428;-36
2022/04/02 11:51:23;;;;;;;3.17;1.30;;;;;;;;;;5007235;28;20230;-36
2022/04/02 11:53:49;;;;;;;2.00;1.27;;;;;;;;;;4990844;28;20662;-36
2022/04/02 11:56:46;;;;;;;2.60;1.37;;;;;;;;;;5004883;28;20474;-36
2022/04/02 11:59:16;;;;;;;4.10;1.40;;;;;;;;;;4988548;28;20210;-36
2022/04/02 12:01:48;;;;;;;2.87;1.30;;;;;;;;;;5003273;28;20440;-36
2022/04/02 12:04:16;;;;;;;2.37;1.00;;;;;;;;;;5005741;28;20636;-36
2022/04/02 12:06:43;;;;;;;2.37;1.17;;;;;;;;;;5005175;28;20187;-36
2022/04/02 12:09:29;;;;;;;2.23;1.60;;;;;;;;;;5004735;28;20215;-36
2022/04/02 12:11:56;;;;;;;3.10;1.20;;;;;;;;;;5004354;28;20787;-36
2022/04/02 12:14:41;;;;;;;2.93;1.20;;;;;;;;;;5006720;28;20192;-36
2022/04/02 12:17:11;;;;;;;2.63;1.10;;;;;;;;;;5008707;28;20954;-36
2022/04/02 12:19:58;;;;;;;1.23;1.00;;;;;;;;;;5006020;28;20337;-36
2022/04/02 12:22:28;;;;;;;2.50;1.37;;;;;;;;;;5003745;28;20204;-36
2022/04/02 12:24:55;;;;;;;1.90;1.10;;;;;;;;;;5003912;28;21032;-36
2022/04/02 12:27:26;;;;;;;2.03;1.20;;;;;;;;;;5006245;28;20427;-36
2022/04/02 12:29:54;;;;;;;4.03;1.43;;;;;;;;;;5002223;28;20180;-36
2022/04/02 12:32:40;;;;;;;3.70;1.40;;;;;;;;;;5002896;28;20196;-36
2022/04/02 12:35:06;;;;;;;2.80;1.10;;;;;;;;;;4984176;28;20470;-36
2022/04/02 12:37:40;;;;;;;1.40;0.97;;;;;;;;;;5008831;28;20173;-36
2022/04/02 12:40:15;;;;;;;1.80;1.03;;;;;;;;;;5003517;28;20172;-36
2022/04/02 12:42:42;;;;;;;3.13;1.27;;;;;;;;;;5004321;28;20575;-35
2022/04/02 12:45:10;;;;;;;1.67;1.07;;;;;;;;;;5009558;28;20188;-36
2022/04/02 12:47:36;;;;;;;2.07;0.87;;;;;;;;;;5005170;28;20182;-36
2022/04/02 12:50:16;;;;;;;2.80;1.30;;;;;;;;;;5004550;28;20294;-36
2022/04/02 12:52:46;;;;;;;2.03;1.00;;;;;;;;;;5003291;28;20772;-36
2022/04/02 12:55:22;;;;;;;3.20;1.30;;;;;;;;;;5004993;28;20278;-36
2022/04/02 12:58:02;;;;;;;2.47;1.60;;;;;;;;;;5003665;28;20195;-36
2022/04/02 13:00:32;;;;;;;2.57;1.30;;;;;;;;;;5006766;28;20722;-36
2022/04/02 13:03:00;;;;;;;3.17;1.10;;;;;;;;;;5003372;28;20421;-36
2022/04/02 13:05:43;;;;;;;4.00;1.27;;;;;;;;;;5003449;28;20963;-36
2022/04/02 13:08:10;;;;;;;2.60;1.07;;;;;;;;;;5005069;28;20195;-36
2022/04/02 13:10:43;;;;;;;2.50;1.20;;;;;;;;;;5003924;28;20556;-36
2022/04/02 13:13:12;;;;;;;3.83;1.30;;;;;;;;;;4999769;28;20838;-37
2022/04/02 13:15:38;;;;;;;2.67;1.30;;;;;;;;;;5005901;28;20192;-36
2022/04/02 13:20:56;;;;;;;2.70;1.20;;;;;;;;;;5004485;28;20231;-36
2022/04/02 13:23:40;;;;;;;3.47;1.37;;;;;;;;;;5005787;28;21079;-36
2022/04/02 13:26:07;;;;;;;3.63;1.27;;;;;;;;;;5006969;28;20498;-36
2022/04/02 13:28:48;;;;;;;2.50;1.20;;;;;;;;;;5002382;28;20734;-36
2022/04/02 13:31:14;;;;;;;6.27;1.50;;;;;;;;;;5004907;28;20279;-36
2022/04/02 13:33:50;;;;;;;3.00;1.30;;;;;;;;;;5005673;28;20203;-36
2022/04/02 13:36:16;;;;;;;3.93;1.30;;;;;;;;;;5004252;28;20215;-36
2022/04/02 13:38:55;;;;;;;4.13;1.27;;;;;;;;;;5003442;28;20692;-35
2022/04/02 13:41:26;;;;;;;1.90;1.20;;;;;;;;;;5003314;28;20698;-35
2022/04/02 13:43:54;;;;;;;4.53;1.40;;;;;;;;;;5004475;28;20176;-36
2022/04/02 13:46:23;;;;;;;2.00;1.10;;;;;;;;;;5000670;28;20176;-36
2022/04/02 13:48:55;;;;;;;2.07;1.30;;;;;;;;;;4999382;28;20191;-36
2022/04/02 13:51:43;;;;;;;2.17;1.00;;;;;;;;;;5004269;28;20430;-36
2022/04/02 13:54:21;;;;;;;3.33;1.20;;;;;;;;;;5003895;28;20213;-36
2022/04/02 13:57:00;;;;;;;2.80;1.47;;;;;;;;;;5000581;28;20463;-36
2022/04/02 13:59:31;;;;;;;3.73;1.30;;;;;;;;;;5002846;28;20808;-36
2022/04/02 14:01:58;;;;;;;1.57;0.83;;;;;;;;;;5003160;28;20176;-37
2022/04/02 14:04:34;;;;;;;4.50;1.13;;;;;;;;;;5000800;28;20191;-36
2022/04/02 14:07:02;;;;;;;3.33;1.30;;;;;;;;;;5001804;28;20314;-36
2022/04/02 14:09:29;;;;;;;4.33;1.30;;;;;;;;;;5003466;28;20177;-36
2022/04/02 14:12:00;;;;;;;3.30;1.57;;;;;;;;;;5001279;28;20970;-36
2022/04/02 14:14:31;;;;;;;2.77;1.17;;;;;;;;;;5000190;28;20663;-36
2022/04/02 14:17:04;;;;;;;1.77;1.10;;;;;;;;;;4999599;28;20172;-36
2022/04/02 14:19:40;;;;;;;2.93;1.13;;;;;;;;;;5004411;28;20187;-36
2022/04/02 14:22:08;;;;;;;2.20;1.27;;;;;;;;;;5004331;28;20431;-36
2022/04/02 14:24:40;;;;;;;1.97;1.10;;;;;;;;;;5002320;28;20207;-36
2022/04/02 14:27:19;;;;;;;3.10;1.20;;;;;;;;;;4995584;28;20932;-37
2022/04/02 14:29:45;;;;;;;2.93;1.50;;;;;;;;;;5002149;28;20286;-36
2022/04/02 14:32:30;;;;;;;2.33;1.20;;;;;;;;;;5003891;28;20418;-37
2022/04/02 14:35:14;;;;;;;2.20;1.03;;;;;;;;;;4996999;28;20314;-36
2022/04/02 14:38:03;;;;;;;3.20;1.40;;;;;;;;;;4996013;28;20230;-36
2022/04/02 14:40:29;;;;;;;3.80;1.23;;;;;;;;;;4970915;28;20337;-37
2022/04/02 14:42:58;;;;;;;4.70;1.50;;;;;;;;;;4998895;28;20536;-37
2022/04/02 14:45:43;;;;;;;3.13;1.33;;;;;;;;;;4997815;28;20230;-36
2022/04/02 14:48:25;;;;;;;2.50;1.20;;;;;;;;;;5000108;28;20176;-36
2022/04/02 14:51:06;;;;;;;3.30;1.30;;;;;;;;;;4998170;28;20445;-36
2022/04/02 14:53:32;;;;;;;3.00;1.40;;;;;;;;;;5001646;28;20184;-36
2022/04/02 14:56:01;;;;;;;2.17;1.17;;;;;;;;;;4997419;28;20510;-36
2022/04/02 14:58:46;;;;;;;2.53;1.40;;;;;;;;;;4993236;28;20176;-36
2022/04/02 15:01:12;;;;;;;3.43;1.60;;;;;;;;;;4995374;28;20180;-36